MDT,Max TemperatureF,Mean TemperatureF,Min TemperatureF,Max Dew PointF,MeanDew PointF,Min DewpointF,Max Humidity, Mean Humidity, Min Humidity, Max Sea Level PressureIn, Mean Sea Level PressureIn, Min Sea Level PressureIn, Max VisibilityMiles, Mean VisibilityMiles, Min VisibilityMiles, Max Wind SpeedMPH, Mean Wind SpeedMPH, Max Gust SpeedMPH,PrecipitationIn, CloudCover, Events, WindDirDegrees
2013-10-1,80,58,37,23,20,16,51,20,4,29.95,29.87,29.80,10,10,10,25,14,32,0.00,0,,196
2013-10-2,78,58,39,31,26,21,47,25,8,29.91,29.81,29.72,10,10,10,28,13,44,0.00,0,,198
2013-10-3,60,48,35,33,24,14,56,34,12,30.07,29.82,29.68,10,10,10,28,16,37,0.00,3,Rain,3
2013-10-4,52,40,27,25,18,14,63,42,15,30.42,30.28,30.08,10,10,10,23,8,32,0.00,4,,13
2013-10-5,59,40,21,23,17,13,72,40,9,30.53,30.45,30.39,10,10,10,18,6,25,0.00,0,,7
2013-10-6,71,48,25,19,17,14,63,31,6,30.43,30.32,30.17,10,10,10,14,5,18,0.00,0,,322
2013-10-7,77,55,33,22,16,7,54,25,4,30.16,30.02,29.86,10,10,10,23,11,29,0.00,0,,199
2013-10-8,73,54,34,19,13,4,41,19,4,29.85,29.76,29.67,10,10,10,22,12,34,0.00,0,,206
2013-10-9,66,52,37,37,22,13,68,32,10,29.71,29.62,29.57,10,10,10,28,10,40,0.16,3,,228
2013-10-10,55,46,37,41,38,35,93,77,48,29.93,29.76,29.64,10,10,5,22,9,31,0.16,5,Rain,191
2013-10-11,60,50,39,40,35,28,89,64,19,30.05,29.99,29.94,10,10,10,15,10,,0.00,1,,202
2013-10-12,66,50,33,35,30,21,92,54,12,30.05,29.95,29.85,10,10,10,20,10,25,0.00,0,,197
2013-10-13,62,50,39,38,33,28,76,57,22,30.01,29.89,29.82,10,10,10,29,11,36,0.01,4,,223
2013-10-14,55,44,34,38,33,27,89,64,24,30.19,30.13,30.02,10,10,10,16,6,21,0.00,5,,360
2013-10-15,54,40,27,34,28,24,92,62,24,30.21,30.18,30.12,10,10,10,20,8,30,0.00,3,Rain,4
2013-10-16,59,41,23,28,19,4,88,49,4,30.31,30.21,30.13,10,10,10,9,3,,0.00,0,,258
2013-10-17,64,44,24,19,16,9,66,36,6,30.17,30.09,30.01,10,10,10,17,7,23,0.00,0,,194
2013-10-18,60,42,24,25,21,17,72,43,14,30.26,30.20,30.10,10,10,10,15,5,22,0.00,0,Rain,5
2013-10-19,66,44,21,22,16,10,78,38,5,30.31,30.19,30.09,10,10,10,12,5,,0.00,0,,231
2013-10-20,69,46,24,17,13,9,57,29,4,30.12,30.04,29.95,10,10,10,18,7,25,0.00,0,,214
2013-10-21,66,46,26,23,19,15,61,35,9,30.22,30.15,30.05,10,10,10,16,5,23,0.00,0,,357
2013-10-22,69,48,26,23,20,17,69,37,8,30.31,30.18,30.09,10,10,10,13,5,,0.00,0,,256
2013-10-23,70,48,27,23,20,16,64,34,6,30.19,30.09,30.01,10,10,10,14,5,20,0.00,0,,344
2013-10-24,70,50,30,28,22,18,59,34,9,30.14,30.08,30.01,10,10,10,13,4,,0.00,1,,356
2013-10-25,71,53,35,30,24,18,65,37,7,30.20,30.14,30.09,10,10,10,13,6,,0.00,0,,294
2013-10-26,71,50,28,24,19,13,64,34,5,30.34,30.23,30.15,10,10,10,12,6,,0.00,0,,264
2013-10-27,72,51,30,23,19,15,56,31,6,30.14,29.88,29.52,10,10,10,26,10,38,0.00,0,,199
2013-10-28,61,48,41,34,23,15,65,30,11,29.69,29.50,29.35,10,8,2,47,27,60,0.00,4,,189
2013-10-29,50,42,33,34,30,24,93,68,28,29.93,29.83,29.71,10,10,10,16,12,21,0.00,6,Rain,195
2013-10-30,51,40,28,34,27,19,89,65,24,30.10,30.00,29.92,10,10,10,8,5,,0.02,5,,212
2013-10-31,55,37,19,24,20,16,82,50,17,30.25,30.18,30.11,10,10,10,12,4,16,0.00,0,,320